Time;durP1;ratioP1;P1;durP2;ratioP2;P2;SDS_P1;SDS_P2;PMS_P1;PMS_P2;Temp;Humidity;BMP_temperature;BMP_pressure;BME280_temperature;BME280_humidity;BME280_pressure;Samples;Min_cycle;Max_cycle;Signal;HPM_P1;HPM_P2
2022/05/20 00:02:16;;;;;;;9.38;5.38;;;13.60;99.90;;;;;;5020840;28;20044;-76
2022/05/20 00:04:41;;;;;;;7.28;5.05;;;13.60;99.90;;;;;;5021375;28;20033;-76
2022/05/20 00:07:09;;;;;;;7.72;5.07;;;13.60;99.90;;;;;;5021129;28;20049;-76
2022/05/20 00:09:35;;;;;;;9.10;5.38;;;13.50;99.90;;;;;;5004748;28;20033;-77
2022/05/20 00:12:01;;;;;;;4.90;4.00;;;13.50;99.90;;;;;;5021033;28;20115;-77
2022/05/20 00:14:27;;;;;;;9.73;4.90;;;13.50;99.90;;;;;;5021947;28;20033;-76
2022/05/20 00:16:52;;;;;;;7.00;5.18;;;13.40;99.90;;;;;;5022125;28;20420;-76
2022/05/20 00:19:18;;;;;;;12.10;5.53;;;13.40;99.90;;;;;;5020702;28;20506;-76
2022/05/20 00:21:44;;;;;;;5.57;4.57;;;13.40;99.90;;;;;;5022411;28;20053;-76
2022/05/20 00:24:10;;;;;;;8.93;4.72;;;13.40;99.90;;;;;;5021174;28;20511;-76
2022/05/20 00:26:35;;;;;;;5.53;4.43;;;13.30;99.90;;;;;;5021308;28;20049;-76
2022/05/20 00:29:01;;;;;;;6.40;4.97;;;13.30;99.90;;;;;;5020957;28;20045;-76
2022/05/20 00:31:27;;;;;;;10.23;4.97;;;13.30;99.90;;;;;;5025481;28;20416;-76
2022/05/20 00:33:53;;;;;;;7.95;4.65;;;13.20;99.90;;;;;;5026211;28;20041;-76
2022/05/20 00:36:19;;;;;;;5.72;4.65;;;13.20;99.90;;;;;;5024623;28;20037;-76
2022/05/20 00:38:46;;;;;;;6.80;5.07;;;13.20;99.90;;;;;;5025143;28;20475;-76
2022/05/20 00:41:12;;;;;;;5.68;4.88;;;13.20;99.90;;;;;;5026086;28;20053;-76
2022/05/20 00:43:41;;;;;;;7.75;5.03;;;13.20;99.90;;;;;;5026286;28;20493;-76
2022/05/20 00:46:13;;;;;;;9.43;5.78;;;13.20;99.90;;;;;;5024714;28;20049;-76
2022/05/20 00:48:40;;;;;;;9.02;6.20;;;13.20;99.90;;;;;;5026435;28;20241;-77
2022/05/20 00:51:14;;;;;;;5.97;3.97;;;13.20;99.90;;;;;;5025838;28;20610;-76
2022/05/20 00:53:49;;;;;;;8.60;4.85;;;13.20;99.90;;;;;;5026073;28;20052;-76
2022/05/20 00:56:20;;;;;;;9.32;6.05;;;13.20;99.90;;;;;;5024102;28;20041;-76
2022/05/20 00:58:46;;;;;;;6.95;5.90;;;13.20;99.90;;;;;;5026215;28;20510;-76
2022/05/20 01:01:12;;;;;;;9.88;5.10;;;13.20;99.90;;;;;;5024778;28;20117;-76
2022/05/20 01:03:38;;;;;;;5.30;4.80;;;13.20;99.90;;;;;;5026013;28;20049;-76
2022/05/20 01:06:05;;;;;;;10.32;4.65;;;13.20;99.90;;;;;;5031896;23;20060;-79
2022/05/20 01:08:32;;;;;;;5.88;5.15;;;13.20;99.90;;;;;;5007139;28;20053;-77
2022/05/20 01:10:59;;;;;;;7.75;4.28;;;13.20;99.90;;;;;;5006947;28;20392;-78
2022/05/20 01:13:27;;;;;;;8.82;4.88;;;13.20;99.90;;;;;;5006805;28;20037;-78
2022/05/20 01:15:54;;;;;;;7.90;4.95;;;13.20;99.90;;;;;;5005706;28;20080;-78
2022/05/20 01:18:20;;;;;;;6.25;4.15;;;13.20;99.90;;;;;;5005458;28;20045;-78
2022/05/20 01:20:48;;;;;;;7.03;4.78;;;13.20;99.90;;;;;;5006456;28;20046;-79
2022/05/20 01:23:15;;;;;;;6.80;4.80;;;13.20;99.90;;;;;;5006367;28;20056;-78
2022/05/20 01:25:43;;;;;;;6.38;5.13;;;13.20;99.90;;;;;;5006371;28;20057;-78
2022/05/20 01:28:10;;;;;;;6.18;4.65;;;13.30;99.90;;;;;;5006150;28;20064;-79
2022/05/20 01:30:48;;;;;;;5.60;4.93;;;13.20;99.90;;;;;;5004304;28;20049;-78
2022/05/20 01:33:22;;;;;;;8.93;4.93;;;13.20;99.90;;;;;;5005982;28;20381;-78
2022/05/20 01:35:47;;;;;;;5.88;4.47;;;13.20;99.90;;;;;;5006255;28;20543;-78
2022/05/20 01:38:13;;;;;;;6.28;5.13;;;13.10;99.90;;;;;;5004722;28;20049;-78
2022/05/20 01:40:52;;;;;;;7.18;6.03;;;13.10;99.90;;;;;;5006056;28;20140;-78
2022/05/20 01:43:45;;;;;;;11.18;5.60;;;13.10;99.90;;;;;;5005924;28;20052;-78
2022/05/20 01:46:33;;;;;;;8.32;4.32;;;13.10;99.90;;;;;;4999431;28;20046;-79
2022/05/20 01:49:25;;;;;;;10.55;5.28;;;13.20;99.90;;;;;;4987161;28;20049;-78
2022/05/20 01:51:55;;;;;;;9.20;5.67;;;13.20;99.90;;;;;;4986610;28;20598;-78
2022/05/20 01:54:37;;;;;;;10.07;6.07;;;13.20;99.90;;;;;;4997907;28;20077;-78
2022/05/20 01:57:31;;;;;;;8.43;6.22;;;13.20;99.90;;;;;;5004674;28;20071;-78
2022/05/20 02:00:09;;;;;;;10.18;5.55;;;13.10;99.90;;;;;;5004647;28;20054;-79
2022/05/20 02:02:51;;;;;;;6.18;5.57;;;13.10;99.90;;;;;;4988188;28;20054;-78
2022/05/20 02:05:35;;;;;;;6.03;4.93;;;13.10;99.90;;;;;;4987818;28;20107;-78
2022/05/20 02:08:18;;;;;;;6.63;5.43;;;13.00;99.90;;;;;;5003869;28;20500;-78
2022/05/20 02:10:57;;;;;;;12.68;5.88;;;13.00;99.90;;;;;;5005689;28;20042;-79
2022/05/20 02:13:26;;;;;;;8.85;5.80;;;13.00;99.90;;;;;;5005109;28;20049;-78
2022/05/20 02:16:01;;;;;;;6.35;5.75;;;13.10;99.90;;;;;;5004703;28;20496;-78
2022/05/20 02:18:49;;;;;;;9.13;5.82;;;13.00;99.90;;;;;;4988243;28;20064;-78
2022/05/20 02:21:18;;;;;;;10.57;6.55;;;13.10;99.90;;;;;;5004949;28;20046;-78
2022/05/20 02:23:49;;;;;;;12.65;5.53;;;13.00;99.90;;;;;;5005252;28;20042;-79
2022/05/20 02:26:19;;;;;;;12.45;6.05;;;13.00;99.90;;;;;;5004784;28;20120;-78
2022/05/20 02:28:56;;;;;;;8.95;5.25;;;13.00;99.90;;;;;;5005476;28;20045;-78
2022/05/20 02:31:37;;;;;;;12.90;6.93;;;13.00;99.90;;;;;;5004183;28;20046;-78
2022/05/20 02:34:02;;;;;;;9.35;6.53;;;12.90;99.90;;;;;;5003919;28;20077;-79
2022/05/20 02:36:34;;;;;;;5.55;4.90;;;12.90;99.90;;;;;;5004102;28;20523;-78
2022/05/20 02:39:02;;;;;;;12.98;6.05;;;12.80;99.90;;;;;;5020882;28;20122;-78
2022/05/20 02:41:28;;;;;;;9.38;5.93;;;12.80;99.90;;;;;;5004554;28;20080;-78
2022/05/20 02:43:53;;;;;;;7.28;5.07;;;12.80;99.90;;;;;;5005094;28;20125;-78
2022/05/20 02:46:19;;;;;;;6.95;6.22;;;12.80;99.90;;;;;;5004115;28;20030;-78
2022/05/20 02:48:44;;;;;;;8.32;5.43;;;12.80;99.90;;;;;;5003682;28;20046;-78
2022/05/20 02:51:11;;;;;;;8.00;5.03;;;12.80;99.90;;;;;;5004089;28;20052;-78
2022/05/20 02:53:37;;;;;;;6.10;5.05;;;12.80;99.90;;;;;;5003846;28;20045;-79
2022/05/20 02:56:03;;;;;;;8.20;5.13;;;12.80;99.90;;;;;;5004423;28;20045;-79
2022/05/20 03:04:12;;;;;;;4.55;3.88;;;12.70;99.90;;;;;;5003856;28;20396;-78
2022/05/20 03:06:51;;;;;;;4.53;4.13;;;12.60;99.90;;;;;;5003255;28;20054;-78
2022/05/20 03:09:20;;;;;;;3.88;3.45;;;12.60;99.90;;;;;;5004301;28;20045;-78
2022/05/20 03:11:46;;;;;;;11.35;4.70;;;12.50;99.90;;;;;;5004648;28;20049;-78
2022/05/20 03:14:14;;;;;;;6.10;4.75;;;12.50;99.90;;;;;;5003678;28;20034;-78
2022/05/20 03:16:40;;;;;;;4.05;3.47;;;12.40;99.90;;;;;;5004496;28;20073;-78
2022/05/20 03:19:07;;;;;;;12.02;4.03;;;12.40;99.90;;;;;;5004499;28;20047;-78
2022/05/20 03:21:34;;;;;;;5.35;4.20;;;12.40;99.90;;;;;;5004218;28;20046;-78
2022/05/20 03:24:01;;;;;;;7.00;4.53;;;12.30;99.90;;;;;;5004731;28;20057;-78
2022/05/20 03:26:27;;;;;;;5.50;5.00;;;12.30;99.90;;;;;;4971033;28;20127;-78
2022/05/20 03:28:53;;;;;;;3.38;3.08;;;12.20;99.90;;;;;;5003655;28;20045;-78
2022/05/20 03:31:19;;;;;;;6.43;4.28;;;12.20;99.90;;;;;;5004252;28;20046;-78
2022/05/20 03:33:46;;;;;;;7.20;4.53;;;12.20;99.90;;;;;;5004076;28;20049;-78
2022/05/20 03:36:12;;;;;;;7.93;5.28;;;12.20;99.90;;;;;;5003787;28;20153;-78
2022/05/20 03:38:38;;;;;;;5.95;4.72;;;12.20;99.90;;;;;;5003934;28;20049;-78
2022/05/20 03:41:04;;;;;;;6.07;5.32;;;12.30;99.90;;;;;;5003641;28;20050;-78
2022/05/20 03:43:32;;;;;;;5.05;3.75;;;12.20;99.90;;;;;;5003344;28;20042;-78
2022/05/20 03:45:57;;;;;;;4.40;4.07;;;12.10;99.90;;;;;;4999621;28;20033;-78
2022/05/20 03:48:23;;;;;;;5.07;4.63;;;12.10;99.90;;;;;;4994201;28;20041;-79
2022/05/20 03:50:49;;;;;;;4.97;4.53;;;12.10;99.90;;;;;;5003950;28;20460;-78
2022/05/20 03:53:14;;;;;;;6.03;4.03;;;12.00;99.90;;;;;;5003085;28;20034;-78
2022/05/20 03:55:40;;;;;;;5.30;4.80;;;12.10;99.90;;;;;;5003517;28;20041;-78
2022/05/20 03:58:06;;;;;;;7.63;3.72;;;12.10;99.90;;;;;;5002272;28;20045;-78
2022/05/20 04:01:56;;;;;;;5.93;4.32;;;12.00;99.90;;;;;;5003070;28;20046;-78
2022/05/20 04:03:18;;;;;;;12.20;4.75;;;12.10;99.90;;;;;;5002159;28;20049;-78
2022/05/20 04:05:44;;;;;;;4.72;4.28;;;12.10;99.90;;;;;;5003641;28;20148;-78
2022/05/20 04:08:09;;;;;;;5.55;5.00;;;12.00;99.90;;;;;;5002207;28;20128;-78
2022/05/20 04:10:35;;;;;;;8.07;4.68;;;12.10;99.90;;;;;;5003451;28;20082;-78
2022/05/20 04:13:00;;;;;;;5.43;4.93;;;12.10;99.90;;;;;;5003612;28;20045;-77
2022/05/20 04:15:26;;;;;;;9.15;6.25;;;12.10;99.90;;;;;;5002811;28;20532;-78
2022/05/20 04:17:51;;;;;;;6.90;6.20;;;12.10;99.90;;;;;;5003695;28;20046;-78
2022/05/20 04:20:17;;;;;;;5.97;5.07;;;12.20;99.90;;;;;;5002189;28;20034;-78
2022/05/20 04:22:42;;;;;;;8.23;5.68;;;12.20;99.90;;;;;;5003278;28;20042;-78
2022/05/20 04:25:08;;;;;;;9.48;6.45;;;12.20;99.90;;;;;;5003422;28;20046;-78
2022/05/20 04:27:34;;;;;;;7.25;5.78;;;12.20;99.90;;;;;;5002022;28;20057;-79
2022/05/20 04:30:00;;;;;;;5.75;5.20;;;12.20;99.90;;;;;;5001436;28;20396;-78
2022/05/20 04:32:25;;;;;;;6.82;5.20;;;12.20;99.90;;;;;;5003628;28;20095;-78
2022/05/20 04:34:51;;;;;;;7.65;4.35;;;12.30;99.90;;;;;;5003063;28;20054;-78
2022/05/20 04:37:17;;;;;;;7.95;5.72;;;12.20;99.90;;;;;;5001922;28;20077;-78
2022/05/20 04:39:42;;;;;;;6.05;5.45;;;12.20;99.90;;;;;;5003169;28;20111;-78
2022/05/20 04:47:41;;;;;;;8.60;6.47;;;12.20;99.90;;;;;;4993379;28;20614;-78
2022/05/20 04:50:07;;;;;;;8.18;6.63;;;12.20;99.90;;;;;;5003130;28;20045;-78
2022/05/20 04:52:33;;;;;;;6.82;6.22;;;12.20;99.90;;;;;;5003545;28;20117;-78
2022/05/20 04:54:59;;;;;;;6.97;5.72;;;12.10;99.90;;;;;;5003324;28;20128;-78
2022/05/20 04:57:33;;;;;;;5.80;5.28;;;12.10;99.90;;;;;;5002995;28;20038;-78
2022/05/20 05:00:06;;;;;;;10.48;6.07;;;12.10;99.90;;;;;;5001796;28;20092;-79
2022/05/20 05:02:32;;;;;;;8.40;6.95;;;12.10;99.90;;;;;;5002637;28;20034;-79
2022/05/20 05:04:58;;;;;;;10.63;7.90;;;12.10;99.90;;;;;;5003450;28;20049;-78
2022/05/20 05:07:24;;;;;;;9.20;7.22;;;12.10;99.90;;;;;;5002300;28;20471;-78
2022/05/20 05:09:50;;;;;;;8.30;7.28;;;12.10;99.90;;;;;;4983597;28;20109;-78
2022/05/20 05:12:16;;;;;;;9.45;8.05;;;12.10;99.90;;;;;;4997608;28;20033;-79
2022/05/20 05:14:46;;;;;;;10.15;8.90;;;12.10;99.90;;;;;;5000800;28;20062;-76
2022/05/20 05:17:14;;;;;;;9.88;8.32;;;12.20;99.90;;;;;;5000179;28;20038;-77
2022/05/20 05:19:41;;;;;;;10.05;8.48;;;12.20;99.90;;;;;;4992264;28;20096;-76
2022/05/20 05:22:08;;;;;;;13.40;8.82;;;12.20;99.90;;;;;;5006020;28;20042;-78
2022/05/20 05:24:35;;;;;;;9.25;7.88;;;12.20;99.90;;;;;;5005596;28;20077;-77
2022/05/20 05:27:00;;;;;;;10.98;8.20;;;12.30;99.90;;;;;;5020366;28;20038;-77
2022/05/20 05:29:26;;;;;;;13.50;9.30;;;12.30;99.90;;;;;;5001915;28;20041;-77
2022/05/20 05:31:52;;;;;;;12.93;8.23;;;12.30;99.90;;;;;;5010287;28;20519;-76
2022/05/20 05:34:18;;;;;;;12.50;9.50;;;12.40;99.90;;;;;;4993945;28;20033;-76
2022/05/20 05:36:44;;;;;;;11.52;9.25;;;12.40;99.90;;;;;;5006056;28;20602;-76
2022/05/20 05:39:09;;;;;;;14.32;8.95;;;12.40;99.90;;;;;;4998500;28;20077;-77
2022/05/20 05:41:35;;;;;;;10.32;9.23;;;12.50;99.90;;;;;;5001265;28;20069;-77
2022/05/20 05:44:01;;;;;;;12.63;8.77;;;12.50;99.90;;;;;;5007400;28;20081;-77
2022/05/20 05:46:26;;;;;;;9.85;8.25;;;12.50;99.90;;;;;;4994908;28;20446;-77
2022/05/20 05:48:52;;;;;;;11.82;9.32;;;12.60;99.90;;;;;;5001823;28;20468;-77
2022/05/20 05:51:18;;;;;;;15.00;9.95;;;12.60;99.90;;;;;;4988510;28;20039;-77
2022/05/20 05:53:43;;;;;;;11.98;8.90;;;12.70;99.90;;;;;;5020508;28;20448;-78
2022/05/20 05:56:09;;;;;;;11.43;9.02;;;12.60;99.90;;;;;;4993511;28;20097;-78
2022/05/20 05:58:35;;;;;;;10.27;8.88;;;12.70;99.90;;;;;;5003626;28;20048;-79
2022/05/20 06:01:01;;;;;;;9.48;8.13;;;12.70;99.90;;;;;;4997661;28;20057;-80
2022/05/20 06:03:27;;;;;;;11.20;8.10;;;12.70;99.90;;;;;;5005847;28;20041;-79
2022/05/20 06:05:52;;;;;;;10.27;7.72;;;12.80;99.90;;;;;;4979967;28;20102;-84
2022/05/20 06:08:18;;;;;;;10.57;7.75;;;12.80;99.90;;;;;;4985835;28;20070;-86
2022/05/20 06:10:45;;;;;;;8.57;6.85;;;12.80;99.90;;;;;;4984699;28;20500;-86
2022/05/20 06:13:11;;;;;;;9.75;7.78;;;12.80;99.90;;;;;;4985240;28;20066;-85
2022/05/20 06:15:40;;;;;;;10.68;7.25;;;12.90;99.90;;;;;;4985111;28;20046;-85
2022/05/20 06:18:06;;;;;;;7.45;6.65;;;12.90;99.90;;;;;;4984490;28;20066;-86
2022/05/20 06:20:33;;;;;;;10.65;7.18;;;13.00;99.90;;;;;;4985686;28;20386;-86
2022/05/20 06:23:01;;;;;;;9.18;6.88;;;13.00;99.90;;;;;;4985153;28;20050;-85
2022/05/20 06:25:27;;;;;;;11.95;7.78;;;13.10;99.90;;;;;;4985825;28;20096;-85
2022/05/20 06:27:52;;;;;;;7.65;6.63;;;13.10;99.90;;;;;;4984607;28;20434;-86
2022/05/20 06:30:20;;;;;;;8.63;6.35;;;13.20;99.90;;;;;;4983153;28;20133;-84
2022/05/20 06:32:45;;;;;;;9.32;6.13;;;13.20;99.90;;;;;;5000913;28;20061;-82
2022/05/20 06:40:46;;;;;;;6.95;5.28;;;13.30;99.90;;;;;;4985207;28;20101;-78
2022/05/20 06:43:14;;;;;;;11.57;6.50;;;13.30;99.90;;;;;;4985049;28;20481;-83
2022/05/20 06:45:45;;;;;;;6.50;5.43;;;13.30;99.90;;;;;;4983492;28;20532;-86
2022/05/20 06:48:11;;;;;;;8.70;5.85;;;13.30;99.90;;;;;;4982173;28;20056;-86
2022/05/20 06:50:39;;;;;;;11.80;5.78;;;13.40;99.90;;;;;;5010335;28;20492;-82
2022/05/20 06:53:05;;;;;;;7.70;4.20;;;13.40;99.90;;;;;;5015373;28;20048;-87
2022/05/20 06:55:31;;;;;;;5.60;4.05;;;13.40;99.90;;;;;;4985463;28;20506;-79
2022/05/20 06:57:56;;;;;;;6.32;4.40;;;13.50;99.90;;;;;;5007579;28;20237;-85
2022/05/20 07:00:22;;;;;;;14.95;4.68;;;13.50;99.90;;;;;;5006900;28;20762;-85
2022/05/20 07:02:48;;;;;;;5.63;4.88;;;13.50;99.90;;;;;;4975918;28;20382;-80
2022/05/20 07:05:13;;;;;;;9.32;4.28;;;13.50;99.90;;;;;;4984716;28;20065;-84
2022/05/20 07:07:39;;;;;;;12.73;3.65;;;13.60;99.90;;;;;;4984722;28;20062;-84
2022/05/20 07:10:07;;;;;;;3.22;2.38;;;13.60;99.90;;;;;;4999239;28;20081;-83
2022/05/20 07:12:34;;;;;;;6.47;4.85;;;13.70;99.90;;;;;;5003633;28;20038;-83
2022/05/20 07:15:00;;;;;;;6.30;3.67;;;13.70;99.90;;;;;;5001919;28;20504;-84
2022/05/20 07:17:27;;;;;;;6.28;3.70;;;13.70;99.90;;;;;;5003405;28;20192;-83
2022/05/20 07:19:53;;;;;;;10.35;4.55;;;13.80;99.90;;;;;;4992524;28;20078;-84
2022/05/20 07:22:18;;;;;;;4.50;3.80;;;13.80;99.90;;;;;;4993677;28;20046;-84
2022/05/20 07:24:44;;;;;;;5.95;3.15;;;13.90;99.90;;;;;;4993586;28;20630;-83
2022/05/20 07:27:10;;;;;;;2.65;2.38;;;13.90;99.90;;;;;;4993504;28;20045;-84
2022/05/20 07:29:36;;;;;;;3.42;2.15;;;13.90;99.90;;;;;;4989742;28;20448;-84
2022/05/20 07:32:01;;;;;;;3.47;2.85;;;14.00;99.90;;;;;;4993475;28;20515;-84
2022/05/20 07:34:27;;;;;;;5.03;2.90;;;14.00;99.90;;;;;;4993781;28;20528;-84
2022/05/20 07:36:53;;;;;;;7.28;3.72;;;14.10;99.90;;;;;;5000894;28;20559;-84
2022/05/20 07:39:19;;;;;;;5.07;3.03;;;14.10;99.90;;;;;;5002359;28;20046;-84
2022/05/20 07:41:45;;;;;;;5.57;3.45;;;14.20;99.90;;;;;;4992909;28;20100;-84
2022/05/20 07:44:10;;;;;;;5.53;3.95;;;14.30;99.90;;;;;;4991868;28;20042;-83
2022/05/20 07:46:39;;;;;;;12.20;4.10;;;14.40;99.90;;;;;;4992750;28;20049;-84
2022/05/20 07:49:05;;;;;;;5.60;3.00;;;14.40;99.90;;;;;;4990139;28;20093;-84
2022/05/20 07:51:32;;;;;;;5.75;3.60;;;14.50;99.90;;;;;;4993467;28;20576;-84
2022/05/20 07:54:04;;;;;;;5.07;3.00;;;14.40;99.90;;;;;;4993327;28;20070;-83
2022/05/20 07:56:37;;;;;;;4.72;3.40;;;14.50;99.90;;;;;;4990808;28;20053;-85
2022/05/20 07:59:19;;;;;;;4.88;3.92;;;14.50;99.90;;;;;;4990355;28;20050;-84
2022/05/20 08:01:50;;;;;;;6.25;3.97;;;14.50;99.90;;;;;;4991631;28;20042;-83
2022/05/20 08:07:14;;;;;;;5.95;4.55;;;14.60;99.90;;;;;;4991330;28;20063;-85
2022/05/20 08:09:43;;;;;;;6.10;4.05;;;14.60;99.90;;;;;;4991455;28;20092;-82
2022/05/20 08:12:09;;;;;;;4.95;3.90;;;14.70;99.90;;;;;;4991374;28;20377;-84
2022/05/20 08:14:35;;;;;;;5.50;4.22;;;14.70;99.90;;;;;;4993175;28;20461;-84
2022/05/20 08:17:02;;;;;;;9.55;4.68;;;14.70;99.90;;;;;;4991048;28;20087;-84
2022/05/20 08:19:28;;;;;;;6.60;4.43;;;14.80;99.90;;;;;;4992053;28;20121;-85
2022/05/20 08:21:55;;;;;;;8.73;4.05;;;14.80;99.90;;;;;;4991919;28;20492;-84
2022/05/20 08:24:20;;;;;;;3.80;3.50;;;14.90;99.90;;;;;;4992441;28;20650;-85
2022/05/20 08:26:46;;;;;;;5.55;3.70;;;14.90;99.90;;;;;;4992434;28;20042;-84
2022/05/20 08:29:12;;;;;;;9.80;4.28;;;14.90;99.90;;;;;;4991268;28;20099;-83
2022/05/20 08:31:40;;;;;;;13.65;4.95;;;14.90;99.90;;;;;;4992156;28;20091;-84
2022/05/20 08:34:05;;;;;;;6.80;3.42;;;15.00;99.90;;;;;;4992251;28;20055;-85
2022/05/20 08:36:31;;;;;;;3.97;3.42;;;15.00;99.90;;;;;;4990806;28;20531;-83
2022/05/20 08:38:57;;;;;;;3.03;2.72;;;15.00;99.90;;;;;;4993724;28;20559;-84
2022/05/20 08:41:31;;;;;;;5.13;3.33;;;15.10;99.90;;;;;;4992511;28;20280;-84
2022/05/20 08:43:56;;;;;;;4.38;3.20;;;15.10;99.90;;;;;;4991053;28;20044;-86
2022/05/20 08:46:23;;;;;;;7.03;4.40;;;15.20;99.90;;;;;;4971599;28;20576;-85
2022/05/20 08:48:53;;;;;;;4.00;3.03;;;15.20;99.90;;;;;;4983228;28;20050;-84
2022/05/20 08:51:20;;;;;;;3.92;3.25;;;15.20;99.90;;;;;;4984447;28;20433;-84
2022/05/20 08:53:47;;;;;;;3.72;3.30;;;15.30;99.90;;;;;;4985579;28;20045;-84
2022/05/20 08:56:17;;;;;;;2.00;1.85;;;15.30;99.90;;;;;;4986468;28;20511;-83
2022/05/20 08:58:55;;;;;;;5.18;2.75;;;15.30;99.90;;;;;;4987809;28;20042;-84
2022/05/20 09:01:31;;;;;;;3.10;2.80;;;15.30;99.90;;;;;;5011751;28;20050;-82
2022/05/20 09:03:57;;;;;;;7.65;3.60;;;15.40;99.90;;;;;;4978736;28;20061;-82
2022/05/20 09:06:24;;;;;;;3.45;3.00;;;15.40;99.90;;;;;;4996271;28;20075;-83
2022/05/20 09:09:10;;;;;;;9.70;2.97;;;15.40;99.90;;;;;;5016518;28;20411;-82
2022/05/20 09:11:38;;;;;;;5.13;2.92;;;15.50;99.90;;;;;;4999828;28;20084;-82
2022/05/20 09:17:21;;;;;;;7.53;3.90;;;15.60;99.90;;;;;;4996008;28;20046;-84
2022/05/20 09:20:07;;;;;;;4.25;3.30;;;15.60;99.90;;;;;;5000172;28;20093;-84
2022/05/20 09:22:38;;;;;;;4.03;3.08;;;15.70;99.90;;;;;;5004572;28;20346;-86
2022/05/20 09:25:22;;;;;;;5.25;3.03;;;15.70;99.90;;;;;;5005661;28;20048;-83
2022/05/20 09:27:50;;;;;;;9.70;4.03;;;15.70;99.90;;;;;;5005932;28;20046;-84
2022/05/20 09:30:21;;;;;;;8.68;4.55;;;15.80;99.90;;;;;;5004135;28;20056;-83
2022/05/20 09:33:10;;;;;;;5.45;4.10;;;15.80;99.90;;;;;;5005551;28;20054;-84
2022/05/20 09:35:36;;;;;;;9.85;4.70;;;15.80;99.90;;;;;;4994119;28;20422;-83
2022/05/20 09:38:28;;;;;;;5.53;4.07;;;15.90;99.90;;;;;;4993557;28;20065;-83
2022/05/20 09:40:54;;;;;;;7.22;4.75;;;15.90;99.90;;;;;;4996245;28;20030;-84
2022/05/20 09:43:40;;;;;;;5.13;4.60;;;15.90;99.90;;;;;;4992972;28;20046;-84
2022/05/20 09:46:27;;;;;;;5.43;4.45;;;16.00;99.90;;;;;;5009485;28;20346;-83
2022/05/20 09:49:16;;;;;;;5.43;4.70;;;15.90;99.90;;;;;;4991492;28;20073;-84
2022/05/20 09:51:54;;;;;;;6.25;4.05;;;16.00;99.90;;;;;;4996353;28;20448;-83
2022/05/20 09:54:41;;;;;;;7.82;4.85;;;16.00;99.90;;;;;;5010458;28;20093;-83
2022/05/20 09:57:36;;;;;;;7.82;4.38;;;16.00;99.90;;;;;;4993504;28;20042;-83
2022/05/20 10:00:28;;;;;;;6.15;3.92;;;16.00;99.90;;;;;;5010352;28;20033;-84
2022/05/20 10:03:11;;;;;;;5.97;3.60;;;16.00;99.90;;;;;;4996064;28;20045;-84
2022/05/20 10:05:47;;;;;;;;;;;16.10;99.90;;;;;;5011040;28;20042;-84
2022/05/20 10:08:42;;;;;;;6.90;4.28;;;16.10;99.90;;;;;;4995546;28;19964;-85
2022/05/20 10:11:16;;;;;;;4.40;3.70;;;16.10;99.90;;;;;;4995890;28;20042;-84
2022/05/20 10:13:56;;;;;;;3.85;3.42;;;16.10;99.90;;;;;;4992592;28;20043;-83
2022/05/20 10:16:54;;;;;;;7.15;3.03;;;16.10;99.90;;;;;;4992179;28;20042;-84
2022/05/20 10:19:23;;;;;;;2.97;2.55;;;16.10;99.90;;;;;;4985566;28;20068;-83
2022/05/20 10:22:05;;;;;;;5.05;3.85;;;16.10;99.90;;;;;;4985032;28;20571;-83
2022/05/20 10:24:41;;;;;;;;;;;16.20;99.90;;;;;;4985968;28;20121;-83
2022/05/20 10:27:28;;;;;;;5.65;4.20;;;16.20;99.90;;;;;;4985039;28;19922;-84
2022/05/20 10:32:54;;;;;;;5.35;3.90;;;16.20;99.90;;;;;;4985121;28;20061;-83
2022/05/20 10:35:24;;;;;;;8.00;3.55;;;16.20;99.90;;;;;;4983515;28;20045;-84
2022/05/20 10:38:11;;;;;;;3.35;3.05;;;16.20;99.90;;;;;;4990401;28;20534;-82
2022/05/20 10:40:59;;;;;;;6.82;3.67;;;16.30;99.90;;;;;;4991397;28;20089;-82
2022/05/20 10:50:04;;;;;;;8.10;3.83;;;16.30;99.90;;;;;;5004160;28;20460;-82
2022/05/20 10:52:42;;;;;;;5.03;4.55;;;16.40;99.90;;;;;;5003588;28;20033;-82
2022/05/20 10:55:10;;;;;;;3.35;3.05;;;16.40;99.90;;;;;;5003441;28;20121;-83
2022/05/20 10:57:36;;;;;;;5.75;3.97;;;16.40;99.90;;;;;;5018248;28;20056;-82
2022/05/20 11:00:18;;;;;;;8.60;3.00;;;16.40;99.90;;;;;;5002437;28;20483;-83
2022/05/20 11:03:02;;;;;;;6.60;3.25;;;16.50;99.90;;;;;;5004135;28;20049;-83
2022/05/20 11:05:46;;;;;;;4.20;3.78;;;16.50;99.90;;;;;;5000073;28;20412;-82
2022/05/20 11:08:33;;;;;;;4.38;3.67;;;16.50;99.90;;;;;;4986626;28;20382;-83
2022/05/20 11:11:13;;;;;;;3.80;2.58;;;16.50;99.90;;;;;;4993778;28;20503;-83
2022/05/20 11:14:15;;;;;;;2.92;2.38;;;16.60;99.90;;;;;;4991760;28;20069;-83
2022/05/20 11:17:02;;;;;;;2.90;2.63;;;16.60;99.90;;;;;;4993503;28;20092;-83
2022/05/20 11:19:44;;;;;;;3.22;2.50;;;16.60;99.90;;;;;;4993634;28;20053;-84
2022/05/20 11:22:44;;;;;;;2.60;2.40;;;16.70;99.90;;;;;;4991130;28;20117;-84
2022/05/20 11:25:33;;;;;;;3.38;2.72;;;16.70;99.90;;;;;;4989015;28;20084;-83
2022/05/20 11:28:12;;;;;;;11.48;2.88;;;16.70;99.90;;;;;;4992933;28;20519;-83
2022/05/20 11:31:12;;;;;;;2.05;1.92;;;16.80;99.90;;;;;;4993812;28;20098;-83
2022/05/20 11:33:51;;;;;;;2.67;2.45;;;16.80;99.90;;;;;;4991609;28;20049;-83
2022/05/20 11:36:38;;;;;;;7.25;3.08;;;16.90;99.90;;;;;;4992974;28;20042;-83
2022/05/20 11:39:48;;;;;;;6.35;2.88;;;16.90;99.90;;;;;;4993576;28;20575;-83
2022/05/20 11:42:18;;;;;;;3.45;2.67;;;16.90;99.90;;;;;;5001135;28;20057;-82
2022/05/20 11:44:46;;;;;;;4.50;3.10;;;17.00;99.90;;;;;;4992413;28;20044;-83
2022/05/20 11:48:05;;;;;;;3.30;2.78;;;17.00;99.90;;;;;;4990687;28;20041;-83
2022/05/20 11:51:01;;;;;;;5.82;2.80;;;17.00;99.90;;;;;;5010867;28;20038;-82
2022/05/20 11:53:46;;;;;;;3.33;2.95;;;17.00;99.90;;;;;;5006990;28;20626;-82
2022/05/20 11:56:36;;;;;;;4.85;2.40;;;17.00;99.90;;;;;;4992433;28;20124;-83
2022/05/20 11:59:19;;;;;;;3.45;2.13;;;17.10;99.90;;;;;;4991690;28;20045;-82
2022/05/20 12:01:49;;;;;;;6.30;2.88;;;17.10;99.90;;;;;;5006726;28;20042;-83
2022/05/20 12:04:18;;;;;;;2.45;2.00;;;17.10;99.90;;;;;;4990619;28;20424;-84
2022/05/20 12:06:57;;;;;;;10.48;2.83;;;17.10;99.90;;;;;;4990828;28;20113;-83
2022/05/20 12:09:35;;;;;;;3.33;2.08;;;17.20;99.90;;;;;;4990739;28;20231;-83
2022/05/20 12:12:27;;;;;;;3.83;2.63;;;17.20;99.90;;;;;;4991402;28;20338;-83
2022/05/20 12:15:11;;;;;;;3.15;2.78;;;17.20;99.90;;;;;;4991672;28;20049;-82
2022/05/20 12:17:40;;;;;;;3.50;2.55;;;17.20;99.90;;;;;;4990877;28;20046;-81
2022/05/20 12:25:53;;;;;;;8.70;3.17;;;17.30;99.90;;;;;;4994766;28;20081;-83
2022/05/20 12:28:21;;;;;;;4.57;3.15;;;17.30;99.90;;;;;;5006138;28;20444;-82
2022/05/20 12:31:23;;;;;;;3.72;2.95;;;17.20;99.90;;;;;;5005930;28;20048;-83
2022/05/20 12:34:10;;;;;;;5.70;3.22;;;17.30;99.90;;;;;;4982693;28;20049;-82
2022/05/20 12:36:41;;;;;;;7.00;4.10;;;17.20;99.90;;;;;;4996444;28;20121;-82
2022/05/20 12:39:06;;;;;;;3.38;3.08;;;17.20;99.90;;;;;;4995157;28;20064;-81
2022/05/20 12:41:38;;;;;;;6.10;4.05;;;17.20;99.90;;;;;;4996360;28;20117;-81
2022/05/20 12:44:16;;;;;;;3.97;3.35;;;17.20;99.90;;;;;;4995843;28;20042;-81
2022/05/20 12:46:57;;;;;;;4.30;3.67;;;17.20;99.90;;;;;;4994935;28;20051;-83
2022/05/20 12:49:27;;;;;;;3.80;3.00;;;17.20;99.90;;;;;;4995413;28;20046;-82
2022/05/20 12:52:04;;;;;;;5.13;3.30;;;17.20;99.90;;;;;;4995049;28;20565;-83
2022/05/20 12:54:29;;;;;;;4.75;3.30;;;17.20;99.90;;;;;;5009990;28;20034;-81
2022/05/20 12:57:08;;;;;;;3.90;2.95;;;17.20;99.90;;;;;;4995988;28;20042;-82
2022/05/20 12:59:33;;;;;;;3.40;3.10;;;17.20;99.90;;;;;;4995558;28;20042;-82
2022/05/20 13:02:07;;;;;;;3.63;3.30;;;17.20;99.90;;;;;;4996150;28;20393;-82
2022/05/20 13:04:38;;;;;;;4.88;4.25;;;17.30;99.90;;;;;;4996304;28;20109;-82
2022/05/20 13:07:05;;;;;;;9.48;4.53;;;17.20;99.90;;;;;;4994795;28;20054;-82
2022/05/20 13:09:39;;;;;;;6.05;4.05;;;17.30;99.90;;;;;;4989370;28;20057;-82
2022/05/20 13:12:13;;;;;;;6.47;4.72;;;17.30;99.90;;;;;;4996204;28;20045;-82
2022/05/20 13:14:40;;;;;;;4.10;3.05;;;17.20;99.90;;;;;;5001556;28;20049;-82
2022/05/20 13:17:08;;;;;;;5.38;3.53;;;17.20;99.90;;;;;;4996875;28;20037;-82
2022/05/20 13:19:50;;;;;;;4.47;3.40;;;17.20;99.90;;;;;;4995132;28;20053;-82
2022/05/20 13:22:21;;;;;;;4.30;3.80;;;17.10;99.90;;;;;;4994852;28;20041;-82
2022/05/20 13:24:55;;;;;;;4.70;3.35;;;17.10;99.90;;;;;;5004000;28;20048;-82
2022/05/20 13:27:23;;;;;;;5.03;3.67;;;17.10;99.90;;;;;;4985546;28;20201;-82
2022/05/20 13:29:51;;;;;;;3.78;3.38;;;17.10;99.90;;;;;;4988918;28;20053;-82
2022/05/20 13:32:31;;;;;;;6.95;3.28;;;17.00;99.90;;;;;;5005991;28;20056;-82
2022/05/20 13:35:00;;;;;;;4.93;3.83;;;17.00;99.90;;;;;;5005030;28;20042;-82
2022/05/20 13:37:37;;;;;;;4.30;3.55;;;17.00;99.90;;;;;;5005860;28;20034;-84
2022/05/20 13:40:14;;;;;;;7.47;3.70;;;17.00;99.90;;;;;;5005469;28;20042;-83
2022/05/20 13:42:51;;;;;;;5.25;4.28;;;17.00;99.90;;;;;;5001591;28;20395;-82
2022/05/20 13:49:12;;;;;;;7.38;3.47;;;16.90;99.90;;;;;;5004579;28;20559;-79
2022/05/20 13:51:05;;;;;;;9.70;5.45;;;16.80;99.90;;;;;;4998760;28;20771;-78